CheckWX is a tool to help pilots better visualize weather data.  It is not intended as a substitute for an official pre-flight weather briefing.

17:33:42 UTC

SAWG TAF
Piloto Civil N. Fernández Airport
Rio Gallegos, Argentina
TAF SAWG 241100Z 2412/2512 29005KT 9999 FEW030 BKN090 TX17/2419Z TN05/2510Z BECMG 2416/2418 27015KT 9999 SHRA SCT030 OVC045 BECMG 2501/2503 25015G35KT 9999 NSW SCT030

Mar-24@
12:00 UTC

Mar-24 @ 12:00 UTC

Mar-24@
16:00 UTC

Mar-24 @ 16:00 UTC

TAF SAWG 241100Z 2412/2512 29005KT 9999 FEW030 BKN090 TX17/2419Z TN05/2510Z

Expired

Wind
  • 290° at 5 KTS
Cloud Levels
  • Few at 3,000' AGL
  • Broken at 9,000' AGL

Mar-24@
16:00 UTC

Mar-24 @ 16:00 UTC

Mar-25@
01:00 UTC

Mar-25 @ 01:00 UTC

BECMG 2416/2418 27015KT 9999 SHRA SCT030 OVC045

Becoming

Becoming Conditions expected by Sun, Mar 24, 2019 @ 18:00 UTC

Wind
  • 270° at 15 KTS
Conditions
Rain
Cloud Levels
  • Scattered at 3,000' AGL
  • Overcast at 4,500' AGL

Mar-25@
01:00 UTC

Mar-25 @ 01:00 UTC

Mar-25@
12:00 UTC

Mar-25 @ 12:00 UTC

BECMG 2501/2503 25015G35KT 9999 NSW SCT030

Becoming

Becoming Conditions expected by Mon, Mar 25, 2019 @ 03:00 UTC

Wind
  • 250° at 15 KTS
  • {Gusting to 35 KTS
Conditions
No significant weather
Cloud Levels
  • Scattered at 3,000' AGL